Time,TemperatureF,DewpointF,PressureIn,WindDirection,WindDirectionDegrees,WindSpeedMPH,WindSpeedGustMPH,Humidity,HourlyPrecipIn,Conditions,Clouds,dailyrainin,SoftwareType,DateUTC
2013-05-14 10:00:00,78.5,60.0,30.20,East,90,0.0,0.0,53,0.00,,---,0.00,VWS V14.01,2013-05-14 15:00:00,
2013-05-14 11:01:00,78.5,60.0,30.20,East,90,0.0,0.0,53,0.00,,---,0.00,VWS V14.01,2013-05-14 16:01:00,
2013-05-14 11:02:00,83.5,58.0,30.20,WSW,240,0.0,0.0,42,0.00,,---,0.00,VWS V14.01,2013-05-14 16:02:00,
2013-05-14 11:07:00,83.7,58.8,30.20,East,89,0.0,2.0,43,0.00,,---,0.00,VWS V14.01,2013-05-14 16:07:00,
2013-05-14 11:12:00,83.7,60.1,30.20,SSE,160,0.0,2.0,45,0.00,,---,0.00,VWS V14.01,2013-05-14 16:12:00,
2013-05-14 11:17:00,84.1,59.9,30.20,SW,221,0.0,2.0,44,0.00,,---,0.00,VWS V14.01,2013-05-14 16:17:00,
2013-05-14 11:22:00,84.8,57.1,30.19,SW,221,0.0,2.0,39,0.00,,---,0.00,VWS V14.01,2013-05-14 16:22:00,
2013-05-14 11:27:00,85.1,57.4,30.19,SW,225,0.0,2.0,39,0.00,,---,0.00,VWS V14.01,2013-05-14 16:27:00,
2013-05-14 11:32:00,84.8,59.8,30.19,ENE,75,0.0,2.0,43,0.00,,---,0.00,VWS V14.01,2013-05-14 16:32:00,
2013-05-14 11:37:00,84.8,59.2,30.19,SSW,207,0.0,2.0,42,0.00,,---,0.00,VWS V14.01,2013-05-14 16:37:00,
2013-05-14 11:41:00,84.9,59.9,30.19,SSW,211,0.0,2.0,43,0.00,,---,0.00,VWS V14.01,2013-05-14 16:41:00,
2013-05-14 11:47:00,84.8,62.3,30.19,SSE,165,0.0,2.0,47,0.00,,---,0.00,VWS V14.01,2013-05-14 16:47:00,
2013-05-14 11:52:00,84.8,59.2,30.19,East,101,0.0,2.0,42,0.00,,---,0.00,VWS V14.01,2013-05-14 16:52:00,
2013-05-14 11:57:00,84.9,59.3,30.19,SE,143,0.0,2.0,42,0.00,,---,0.00,VWS V14.01,2013-05-14 16:57:00,
2013-05-14 12:02:00,84.8,61.7,30.19,SSW,210,0.0,2.0,46,0.00,,---,0.00,VWS V14.01,2013-05-14 17:02:00,
2013-05-14 12:07:00,84.9,59.9,30.19,SSW,210,0.0,1.0,43,0.00,,---,0.00,VWS V14.01,2013-05-14 17:07:00,
2013-05-14 12:12:00,85.2,58.9,30.18,East,81,0.0,1.0,41,0.00,,---,0.00,VWS V14.01,2013-05-14 17:12:00,
2013-05-14 12:17:00,85.0,58.0,30.18,SW,214,1.0,3.0,40,0.00,,---,0.00,VWS V14.01,2013-05-14 17:17:00,
2013-05-14 12:22:00,84.5,58.2,30.18,SSW,212,1.0,3.0,41,0.00,,---,0.00,VWS V14.01,2013-05-14 17:22:00,
2013-05-14 12:27:00,84.3,60.0,30.18,South,170,0.0,3.0,44,0.00,,---,0.00,VWS V14.01,2013-05-14 17:27:00,
2013-05-14 12:32:00,84.7,61.7,30.18,SSW,204,0.0,3.0,46,0.00,,---,0.00,VWS V14.01,2013-05-14 17:32:00,
2013-05-14 12:37:00,85.1,60.1,30.18,SSW,212,0.0,2.0,43,0.00,,---,0.00,VWS V14.01,2013-05-14 17:37:00,
2013-05-14 12:42:00,84.7,57.7,30.17,SW,218,0.0,2.0,40,0.00,,---,0.00,VWS V14.01,2013-05-14 17:42:00,
2013-05-14 12:47:00,84.7,61.7,30.17,SE,136,2.0,2.0,46,0.00,,---,0.00,VWS V14.01,2013-05-14 17:47:00,
2013-05-14 12:52:00,84.4,60.8,30.17,SW,217,1.0,5.0,45,0.00,,---,0.00,VWS V14.01,2013-05-14 17:52:00,
2013-05-14 12:57:00,84.1,61.7,30.17,SSW,210,1.0,5.0,47,0.00,,---,0.00,VWS V14.01,2013-05-14 17:57:00,
2013-05-14 13:02:00,84.1,58.5,30.17,SW,218,0.0,5.0,42,0.00,,---,0.00,VWS V14.01,2013-05-14 18:02:00,
2013-05-14 13:06:00,84.1,61.7,30.16,SW,224,0.0,2.0,47,0.00,,---,0.00,VWS V14.01,2013-05-14 18:06:00,
2013-05-14 13:11:00,84.5,60.2,30.16,SW,214,0.0,2.0,44,0.00,,---,0.00,VWS V14.01,2013-05-14 18:11:00,
2013-05-14 13:16:00,84.7,58.4,30.16,SSW,208,2.0,3.0,41,0.00,,---,0.00,VWS V14.01,2013-05-14 18:16:00,
2013-05-14 13:21:00,84.6,60.3,30.16,SSW,212,1.0,3.0,44,0.00,,---,0.00,VWS V14.01,2013-05-14 18:21:00,
2013-05-14 13:26:00,84.5,59.6,30.15,SW,217,0.0,3.0,43,0.00,,---,0.00,VWS V14.01,2013-05-14 18:26:00,
2013-05-14 13:31:00,84.8,61.1,30.15,SSW,211,1.0,4.0,45,0.00,,---,0.00,VWS V14.01,2013-05-14 18:31:00,
2013-05-14 13:36:00,84.9,61.2,30.15,SW,229,0.0,1.0,45,0.00,,---,0.00,VWS V14.01,2013-05-14 18:36:00,
2013-05-14 13:41:00,85.1,61.4,30.15,SE,127,0.0,3.0,45,0.00,,---,0.00,VWS V14.01,2013-05-14 18:41:00,
2013-05-14 13:46:00,85.4,60.4,30.15,SSW,198,1.0,4.0,43,0.00,,---,0.00,VWS V14.01,2013-05-14 18:46:00,
2013-05-14 13:51:00,85.0,62.5,30.14,SSW,207,2.0,4.0,47,0.00,,---,0.00,VWS V14.01,2013-05-14 18:51:00,
2013-05-14 13:56:00,84.5,58.9,30.14,SW,226,2.0,4.0,42,0.00,,---,0.00,VWS V14.01,2013-05-14 18:56:00,
2013-05-14 14:01:00,84.7,61.0,30.14,SW,218,0.0,4.0,45,0.00,,---,0.00,VWS V14.01,2013-05-14 19:01:00,
2013-05-14 14:06:00,85.1,62.0,30.14,SW,228,1.0,2.0,46,0.00,,---,0.00,VWS V14.01,2013-05-14 19:06:00,
2013-05-14 14:11:00,84.8,63.0,30.14,SW,219,0.0,3.0,48,0.00,,---,0.00,VWS V14.01,2013-05-14 19:11:00,
2013-05-14 14:16:00,84.5,60.8,30.14,WSW,252,0.0,3.0,45,0.00,,---,0.00,VWS V14.01,2013-05-14 19:16:00,
2013-05-14 14:21:00,84.7,61.7,30.13,SE,139,1.0,3.0,46,0.00,,---,0.00,VWS V14.01,2013-05-14 19:21:00,
2013-05-14 14:26:00,84.1,58.5,30.13,SW,221,0.0,3.0,42,0.00,,---,0.00,VWS V14.01,2013-05-14 19:26:00,
2013-05-14 14:31:00,84.2,61.2,30.13,SSW,204,0.0,3.0,46,0.00,,---,0.00,VWS V14.01,2013-05-14 19:31:00,
2013-05-14 14:36:00,84.4,62.6,30.12,SW,217,2.0,3.0,48,0.00,,---,0.00,VWS V14.01,2013-05-14 19:36:00,
2013-05-14 14:41:00,84.0,58.5,30.12,SW,226,3.0,4.0,42,0.00,,---,0.00,VWS V14.01,2013-05-14 19:41:00,
2013-05-14 14:46:00,83.7,59.5,30.12,SW,214,4.0,4.0,44,0.00,,---,0.00,VWS V14.01,2013-05-14 19:46:00,
2013-05-14 14:51:00,83.7,62.0,30.12,SW,217,0.0,4.0,48,0.00,,---,0.00,VWS V14.01,2013-05-14 19:51:00,
2013-05-14 14:56:00,83.7,60.7,30.12,WSW,240,1.0,4.0,46,0.00,,---,0.00,VWS V14.01,2013-05-14 19:56:00,
2013-05-14 15:01:00,83.9,62.1,30.12,SW,218,0.0,4.0,48,0.00,,---,0.00,VWS V14.01,2013-05-14 20:01:00,
2013-05-14 15:06:00,83.8,58.3,30.12,SW,224,0.0,4.0,42,0.00,,---,0.00,VWS V14.01,2013-05-14 20:06:00,
2013-05-14 15:11:00,83.8,62.0,30.11,SW,222,0.0,4.0,48,0.00,,---,0.00,VWS V14.01,2013-05-14 20:11:00,
2013-05-14 15:17:00,83.6,61.8,30.11,SW,214,0.0,4.0,48,0.00,,---,0.00,VWS V14.01,2013-05-14 20:17:00,
2013-05-14 15:22:00,83.4,59.8,30.11,SSW,195,0.0,4.0,45,0.00,,---,0.00,VWS V14.01,2013-05-14 20:22:00,
2013-05-14 15:27:00,83.7,62.0,30.11,SE,143,2.0,4.0,48,0.00,,---,0.00,VWS V14.01,2013-05-14 20:27:00,
2013-05-14 15:32:00,83.3,60.4,30.11,SW,217,0.0,4.0,46,0.00,,---,0.00,VWS V14.01,2013-05-14 20:32:00,
2013-05-14 15:37:00,83.5,62.3,30.11,SSW,193,1.0,1.0,49,0.00,,---,0.00,VWS V14.01,2013-05-14 20:37:00,
2013-05-14 15:42:00,83.3,61.6,30.11,SW,222,0.0,3.0,48,0.00,,---,0.00,VWS V14.01,2013-05-14 20:42:00,
2013-05-14 15:47:00,82.8,61.7,30.11,SW,214,0.0,3.0,49,0.00,,---,0.00,VWS V14.01,2013-05-14 20:47:00,
2013-05-14 15:52:00,82.2,61.7,30.10,SSW,212,0.0,4.0,50,0.00,,---,0.00,VWS V14.01,2013-05-14 20:52:00,
2013-05-14 15:57:00,82.4,61.3,30.10,SE,134,0.0,4.0,49,0.00,,---,0.00,VWS V14.01,2013-05-14 20:57:00,
2013-05-14 16:02:00,81.8,60.2,30.10,SSW,213,1.0,4.0,48,0.00,,---,0.00,VWS V14.01,2013-05-14 21:02:00,
2013-05-14 16:07:00,81.6,60.0,30.10,SW,217,2.0,2.0,48,0.00,,---,0.00,VWS V14.01,2013-05-14 21:07:00,
2013-05-14 16:12:00,81.0,59.5,30.10,SW,222,0.0,3.0,48,0.00,,---,0.00,VWS V14.01,2013-05-14 21:12:00,
2013-05-14 16:17:00,80.7,59.8,30.10,SSW,212,0.0,3.0,49,0.00,,---,0.00,VWS V14.01,2013-05-14 21:17:00,
2013-05-14 16:22:00,80.3,58.8,30.10,SW,214,1.0,3.0,48,0.00,,---,0.00,VWS V14.01,2013-05-14 21:22:00,
2013-05-14 16:27:00,80.1,60.4,30.10,WSW,240,0.0,3.0,51,0.00,,---,0.00,VWS V14.01,2013-05-14 21:27:00,
2013-05-14 16:31:00,79.9,61.3,30.09,SSW,211,0.0,3.0,53,0.00,,---,0.00,VWS V14.01,2013-05-14 21:31:00,
2013-05-14 16:36:00,79.8,61.2,30.09,SSW,210,0.0,2.0,53,0.00,,---,0.00,VWS V14.01,2013-05-14 21:36:00,
2013-05-14 16:41:00,79.4,62.3,30.09,SW,224,0.0,4.0,56,0.00,,---,0.00,VWS V14.01,2013-05-14 21:41:00,
2013-05-14 16:46:00,78.9,61.9,30.09,SW,215,1.0,4.0,56,0.00,,---,0.00,VWS V14.01,2013-05-14 21:46:00,
2013-05-14 16:51:00,78.5,61.0,30.09,SW,214,1.0,4.0,55,0.00,,---,0.00,VWS V14.01,2013-05-14 21:51:00,
2013-05-14 16:56:00,77.9,62.0,30.10,SW,217,1.0,4.0,58,0.00,,---,0.00,VWS V14.01,2013-05-14 21:56:00,
2013-05-14 17:01:00,77.6,61.2,30.10,SSW,207,1.0,4.0,57,0.00,,---,0.00,VWS V14.01,2013-05-14 22:01:00,
2013-05-14 17:06:00,77.1,61.2,30.09,SW,214,1.0,3.0,58,0.00,,---,0.00,VWS V14.01,2013-05-14 22:06:00,
2013-05-14 17:11:00,76.8,61.9,30.09,SSW,207,1.0,3.0,60,0.00,,---,0.00,VWS V14.01,2013-05-14 22:11:00,
2013-05-14 17:16:00,76.6,60.7,30.09,SW,214,2.0,3.0,58,0.00,,---,0.00,VWS V14.01,2013-05-14 22:16:00,
2013-05-14 17:21:00,76.3,61.4,30.09,SW,223,0.0,3.0,60,0.00,,---,0.00,VWS V14.01,2013-05-14 22:21:00,
2013-05-14 17:26:00,76.1,61.7,30.09,SW,233,1.0,3.0,61,0.00,,---,0.00,VWS V14.01,2013-05-14 22:26:00,
2013-05-14 17:31:00,76.2,60.8,30.09,SSW,205,1.0,3.0,59,0.00,,---,0.00,VWS V14.01,2013-05-14 22:31:00,
2013-05-14 17:36:00,76.0,61.6,30.09,SW,214,0.0,2.0,61,0.00,,---,0.00,VWS V14.01,2013-05-14 22:36:00,
2013-05-14 17:41:00,75.9,62.9,30.09,SSW,212,0.0,2.0,64,0.00,,---,0.00,VWS V14.01,2013-05-14 22:41:00,
2013-05-14 17:46:00,75.9,62.9,30.09,SW,217,1.0,2.0,64,0.00,,---,0.00,VWS V14.01,2013-05-14 22:46:00,
2013-05-14 17:51:00,75.7,63.5,30.09,SSW,203,0.0,2.0,66,0.00,,---,0.00,VWS V14.01,2013-05-14 22:51:00,
2013-05-14 17:56:00,75.4,62.4,30.09,SW,221,0.0,2.0,64,0.00,,---,0.00,VWS V14.01,2013-05-14 22:56:00,
2013-05-14 18:01:00,75.2,62.6,30.08,SW,214,0.0,2.0,65,0.00,,---,0.00,VWS V14.01,2013-05-14 23:01:00,
2013-05-14 18:06:00,74.9,62.8,30.08,SW,217,0.0,1.0,66,0.00,,---,0.00,VWS V14.01,2013-05-14 23:06:00,
2013-05-14 18:11:00,74.5,62.0,30.08,SSW,208,0.0,3.0,65,0.00,,---,0.00,VWS V14.01,2013-05-14 23:11:00,
2013-05-14 18:16:00,74.3,63.1,30.08,SW,217,0.0,3.0,68,0.00,,---,0.00,VWS V14.01,2013-05-14 23:16:00,
2013-05-14 18:21:00,73.9,62.7,30.09,SW,215,0.0,3.0,68,0.00,,---,0.00,VWS V14.01,2013-05-14 23:21:00,
2013-05-14 18:26:00,73.7,62.5,30.09,SSW,210,0.0,3.0,68,0.00,,---,0.00,VWS V14.01,2013-05-14 23:26:00,
2013-05-14 18:31:00,73.5,62.7,30.09,SSW,212,0.0,3.0,69,0.00,,---,0.00,VWS V14.01,2013-05-14 23:31:00,
2013-05-14 18:36:00,73.2,62.0,30.09,SW,218,1.0,2.0,68,0.00,,---,0.00,VWS V14.01,2013-05-14 23:36:00,
2013-05-14 18:41:00,73.0,62.2,30.08,SSW,210,0.0,2.0,69,0.00,,---,0.00,VWS V14.01,2013-05-14 23:41:00,
2013-05-14 18:46:00,72.8,62.0,30.08,SSW,207,0.0,2.0,69,0.00,,---,0.00,VWS V14.01,2013-05-14 23:46:00,
2013-05-14 18:51:00,72.6,62.7,30.08,SW,218,0.0,2.0,71,0.00,,---,0.00,VWS V14.01,2013-05-14 23:51:00,
2013-05-14 18:56:00,72.4,62.5,30.08,SW,218,0.0,2.0,71,0.00,,---,0.00,VWS V14.01,2013-05-14 23:56:00,
2013-05-14 19:01:00,72.2,62.7,30.08,SW,218,0.0,2.0,72,0.00,,---,0.00,VWS V14.01,2013-05-15 00:01:00,
2013-05-14 19:06:00,72.0,62.5,30.08,SW,219,0.0,1.0,72,0.00,,---,0.00,VWS V14.01,2013-05-15 00:06:00,
2013-05-14 19:11:00,71.8,62.7,30.09,SW,218,0.0,1.0,73,0.00,,---,0.00,VWS V14.01,2013-05-15 00:11:00,
2013-05-14 19:16:00,71.5,62.4,30.08,SW,218,0.0,1.0,73,0.00,,---,0.00,VWS V14.01,2013-05-15 00:16:00,
2013-05-14 19:21:00,71.3,62.6,30.08,SW,219,0.0,1.0,74,0.00,,---,0.00,VWS V14.01,2013-05-15 00:21:00,
2013-05-14 19:26:00,71.0,62.3,30.08,SW,218,0.0,1.0,74,0.00,,---,0.00,VWS V14.01,2013-05-15 00:26:00,
2013-05-14 19:31:00,70.6,62.7,30.08,SW,219,0.0,1.0,76,0.00,,---,0.00,VWS V14.01,2013-05-15 00:31:00,
2013-05-14 19:36:00,69.9,62.4,30.09,SW,218,0.0,0.0,77,0.00,,---,0.00,VWS V14.01,2013-05-15 00:36:00,
2013-05-14 19:41:00,69.4,62.6,30.09,SW,218,0.0,0.0,79,0.00,,---,0.00,VWS V14.01,2013-05-15 00:41:00,
2013-05-14 19:46:00,68.8,62.4,30.09,SW,218,0.0,0.0,80,0.00,,---,0.00,VWS V14.01,2013-05-15 00:46:00,
2013-05-14 19:51:00,68.1,62.4,30.09,SW,218,0.0,0.0,82,0.00,,---,0.00,VWS V14.01,2013-05-15 00:51:00,
2013-05-14 19:56:00,67.6,61.9,30.09,SW,218,0.0,0.0,82,0.00,,---,0.00,VWS V14.01,2013-05-15 00:56:00,
2013-05-14 20:01:00,67.2,62.2,30.09,SW,218,0.0,0.0,84,0.00,,---,0.00,VWS V14.01,2013-05-15 01:01:00,
2013-05-14 20:06:00,66.9,61.9,30.09,SW,219,0.0,0.0,84,0.00,,---,0.00,VWS V14.01,2013-05-15 01:06:00,
2013-05-14 20:11:00,66.5,61.9,30.09,SW,218,0.0,0.0,85,0.00,,---,0.00,VWS V14.01,2013-05-15 01:11:00,
2013-05-14 20:16:00,66.0,61.7,30.09,SW,218,0.0,0.0,86,0.00,,---,0.00,VWS V14.01,2013-05-15 01:16:00,
2013-05-14 20:21:00,65.6,61.6,30.09,SW,218,0.0,0.0,87,0.00,,---,0.00,VWS V14.01,2013-05-15 01:21:00,
2013-05-14 20:26:00,65.2,61.2,30.09,SW,218,0.0,0.0,87,0.00,,---,0.00,VWS V14.01,2013-05-15 01:26:00,
2013-05-14 20:31:00,64.7,61.1,30.09,SW,218,0.0,0.0,88,0.00,,---,0.00,VWS V14.01,2013-05-15 01:31:00,
2013-05-14 20:36:00,64.4,61.1,30.10,SW,219,0.0,0.0,89,0.00,,---,0.00,VWS V14.01,2013-05-15 01:36:00,
2013-05-14 20:41:00,64.1,60.8,30.09,SW,218,0.0,0.0,89,0.00,,---,0.00,VWS V14.01,2013-05-15 01:41:00,
2013-05-14 20:46:00,63.8,60.8,30.10,SW,218,0.0,0.0,90,0.00,,---,0.00,VWS V14.01,2013-05-15 01:46:00,
2013-05-14 20:51:00,63.6,60.9,30.10,SW,218,0.0,0.0,91,0.00,,---,0.00,VWS V14.01,2013-05-15 01:51:00,
2013-05-14 20:56:00,63.5,61.1,30.10,SW,218,0.0,0.0,92,0.00,,---,0.00,VWS V14.01,2013-05-15 01:56:00,
2013-05-14 21:01:00,63.3,60.9,30.10,SW,218,0.0,0.0,92,0.00,,---,0.00,VWS V14.01,2013-05-15 02:01:00,
2013-05-14 21:06:00,63.2,61.2,30.10,SW,218,0.0,0.0,93,0.00,,---,0.00,VWS V14.01,2013-05-15 02:06:00,
2013-05-14 21:11:00,63.2,61.2,30.10,SW,219,0.0,0.0,93,0.00,,---,0.00,VWS V14.01,2013-05-15 02:11:00,
2013-05-14 21:16:00,63.0,61.0,30.10,SW,218,0.0,0.0,93,0.00,,---,0.00,VWS V14.01,2013-05-15 02:16:00,
2013-05-14 21:21:00,62.9,61.2,30.10,SW,218,0.0,0.0,94,0.00,,---,0.00,VWS V14.01,2013-05-15 02:21:00,
2013-05-14 21:26:00,62.7,61.0,30.10,SW,218,0.0,0.0,94,0.00,,---,0.00,VWS V14.01,2013-05-15 02:26:00,
2013-05-14 21:31:00,62.6,60.8,30.10,SW,218,0.0,0.0,94,0.00,,---,0.00,VWS V14.01,2013-05-15 02:31:00,
2013-05-14 21:36:00,62.7,61.2,30.10,SW,218,0.0,0.0,95,0.00,,---,0.00,VWS V14.01,2013-05-15 02:36:00,
2013-05-14 21:41:00,62.6,61.2,30.10,SW,219,0.0,0.0,95,0.00,,---,0.00,VWS V14.01,2013-05-15 02:41:00,
2013-05-14 21:46:00,62.4,61.0,30.11,SW,218,0.0,0.0,95,0.00,,---,0.00,VWS V14.01,2013-05-15 02:46:00,
2013-05-14 21:51:00,62.3,60.8,30.11,SW,219,0.0,0.0,95,0.00,,---,0.00,VWS V14.01,2013-05-15 02:51:00,
2013-05-14 21:56:00,62.1,60.7,30.11,SW,218,0.0,0.0,95,0.00,,---,0.00,VWS V14.01,2013-05-15 02:56:00,
2013-05-14 22:01:00,62.0,60.6,30.11,SW,218,0.0,0.0,95,0.00,,---,0.00,VWS V14.01,2013-05-15 03:01:00,
2013-05-14 22:06:00,61.9,60.5,30.11,SW,219,0.0,0.0,95,0.00,,---,0.00,VWS V14.01,2013-05-15 03:06:00,
2013-05-14 22:11:00,61.8,60.4,30.10,SW,218,0.0,0.0,95,0.00,,---,0.00,VWS V14.01,2013-05-15 03:11:00,
2013-05-14 22:16:00,61.6,60.2,30.10,SW,218,0.0,0.0,95,0.00,,---,0.00,VWS V14.01,2013-05-15 03:16:00,
2013-05-14 22:21:00,61.4,60.0,30.10,SW,219,0.0,0.0,95,0.00,,---,0.00,VWS V14.01,2013-05-15 03:21:00,
2013-05-14 22:26:00,61.3,60.2,30.10,SW,219,0.0,0.0,96,0.00,,---,0.00,VWS V14.01,2013-05-15 03:26:00,
2013-05-14 22:31:00,61.2,60.0,30.11,SW,219,0.0,0.0,96,0.00,,---,0.00,VWS V14.01,2013-05-15 03:31:00,
2013-05-14 22:36:00,61.1,60.0,30.10,SW,219,0.0,0.0,96,0.00,,---,0.00,VWS V14.01,2013-05-15 03:36:00,
2013-05-14 22:41:00,61.0,59.9,30.10,SW,218,0.0,0.0,96,0.00,,---,0.00,VWS V14.01,2013-05-15 03:41:00,
2013-05-14 22:46:00,60.9,59.8,30.10,SW,218,0.0,0.0,96,0.00,,---,0.00,VWS V14.01,2013-05-15 03:46:00,
2013-05-14 22:51:00,60.8,59.7,30.10,SW,218,0.0,0.0,96,0.00,,---,0.00,VWS V14.01,2013-05-15 03:51:00,
2013-05-14 22:56:00,60.7,59.6,30.10,SW,218,0.0,0.0,96,0.00,,---,0.00,VWS V14.01,2013-05-15 03:56:00,
2013-05-14 23:01:00,60.7,59.6,30.10,SW,218,0.0,0.0,96,0.00,,---,0.00,VWS V14.01,2013-05-15 04:01:00,
2013-05-14 23:06:00,60.7,59.6,30.10,SW,218,0.0,0.0,96,0.00,,---,0.00,VWS V14.01,2013-05-15 04:06:00,
2013-05-14 23:11:00,60.6,59.5,30.11,SW,218,0.0,0.0,96,0.00,,---,0.00,VWS V14.01,2013-05-15 04:11:00,
2013-05-14 23:16:00,60.5,59.4,30.10,SW,218,0.0,0.0,96,0.00,,---,0.00,VWS V14.01,2013-05-15 04:16:00,
2013-05-14 23:21:00,60.5,59.7,30.10,SW,218,0.0,0.0,97,0.00,,---,0.00,VWS V14.01,2013-05-15 04:21:00,
2013-05-14 23:26:00,60.5,59.7,30.10,SW,218,0.0,0.0,97,0.00,,---,0.00,VWS V14.01,2013-05-15 04:26:00,
2013-05-14 23:31:00,60.4,59.5,30.10,SW,218,0.0,0.0,97,0.00,,---,0.00,VWS V14.01,2013-05-15 04:31:00,
2013-05-14 23:36:00,60.4,59.5,30.10,SW,218,0.0,0.0,97,0.00,,---,0.00,VWS V14.01,2013-05-15 04:36:00,
2013-05-14 23:41:00,60.3,59.5,30.10,SW,218,0.0,0.0,97,0.00,,---,0.00,VWS V14.01,2013-05-15 04:41:00,
2013-05-14 23:46:00,60.1,59.2,30.10,SW,218,0.0,0.0,97,0.00,,---,0.00,VWS V14.01,2013-05-15 04:46:00,
2013-05-14 23:50:00,59.9,59.0,30.10,SW,218,0.0,0.0,97,0.00,,---,0.00,VWS V14.01,2013-05-15 04:50:00,
2013-05-14 23:55:00,59.6,58.8,30.10,SW,218,0.0,0.0,97,0.00,,---,0.00,VWS V14.01,2013-05-15 04:55:00,